Accueil
METAR-TAF:

METAR-TAF

Aéroports :

Aéroport de Bologne-Borgo Panigale

Bologne, Italie

latitude: 44-32N, longitude: 011-18E, altitude: 36 m

Observation

Le bulletin a été fait il y a 48 minutes, à 00:50 UTC
Vent 5 kt de ouest/nord-ouest, variant entre ouest et nord
Température 8°C
Humidité 87%
Pression 1023 hPa
Visibilité 10 km ou plus
pas de nuages en-dessous de 1500 mètres et pas de cumulonimbus.

METAR: LIPE 220050Z 30005KT 280V350 CAVOK 08/06 Q1023

Heure: 03:38 (01:38 UTC)

Prévision

Le bulletin a été fait il y a 2 heures et 38 minutes, à 23:00 UTC
Prévision valable du 22 à 00 UTC au 22 à 24 UTC
Vent 16 kt de est
Visibilité 10 km ou plus
Quelques nuages à une hauteur de 3000 ft

TAF: LIPE 212300Z 2200/2224 09016KT 9999 FEW030

Observations et prévisions météorologiques de plus de 4000 aéroports (messages METAR et TAF).

Les stations disponibles sont représentées par des disques jaunes et rouges sur la carte.

Passer la souris dessus pour voir le nom de la station.

Cliquer dessus pour voir les observations et prévisions météorologiques.

Pour changer de carte: cliquez sur les boutons verts avec une croix noire pour zoomer, sur le bouton vert avec un tiret pour effectuer un zoom arrière, ou sur les flèches vertes pour les cartes adjacentes.


METAR-TAF: